Time;durP1;ratioP1;P1;durP2;ratioP2;P2;SDS_P1;SDS_P2;PMS_P1;PMS_P2;Temp;Humidity;BMP_temperature;BMP_pressure;BME280_temperature;BME280_humidity;BME280_pressure;Samples;Min_cycle;Max_cycle;Signal;HPM_P1;HPM_P2
2021/06/01 00:00:26;;;;;;;5.90;1.92;;;;;;;;;;4957046;28;20034;-88
2021/06/01 00:02:54;;;;;;;6.15;1.98;;;;;;;;;;4934130;28;20031;-88
2021/06/01 00:05:22;;;;;;;6.78;1.70;;;;;;;;;;4941003;28;20110;-88
2021/06/01 00:07:51;;;;;;;7.97;2.47;;;;;;;;;;4956541;28;20513;-89
2021/06/01 00:10:21;;;;;;;9.35;2.40;;;;;;;;;;4948412;28;20037;-89
2021/06/01 00:12:48;;;;;;;6.75;1.95;;;;;;;;;;4954037;28;20238;-88
2021/06/01 00:15:15;;;;;;;5.78;2.13;;;;;;;;;;4935647;28;20031;-88
2021/06/01 00:17:42;;;;;;;4.95;1.80;;;;;;;;;;4923268;28;20039;-90
2021/06/01 00:20:10;;;;;;;5.13;1.77;;;;;;;;;;4946225;28;20027;-89
2021/06/01 00:22:38;;;;;;;6.47;2.10;;;;;;;;;;4961315;28;20054;-90
2021/06/01 00:25:07;;;;;;;5.22;1.67;;;;;;;;;;4940116;28;20066;-87
2021/06/01 00:27:39;;;;;;;6.55;1.75;;;;;;;;;;4955358;28;20055;-87
2021/06/01 00:30:06;;;;;;;6.03;1.90;;;;;;;;;;4953969;28;20035;-88
2021/06/01 00:32:33;;;;;;;7.32;1.90;;;;;;;;;;4955651;28;20027;-88
2021/06/01 00:35:03;;;;;;;7.20;1.90;;;;;;;;;;4940241;28;20035;-85
2021/06/01 00:37:31;;;;;;;5.60;2.00;;;;;;;;;;4941150;28;20034;-88
2021/06/01 00:40:01;;;;;;;6.90;1.90;;;;;;;;;;4942051;28;20038;-86
2021/06/01 00:42:28;;;;;;;7.25;1.90;;;;;;;;;;4942307;28;20027;-87
2021/06/01 00:45:02;;;;;;;6.47;2.00;;;;;;;;;;4937826;28;20632;-88
2021/06/01 00:47:32;;;;;;;;;;;;;;;;;;4926418;28;20039;-88
2021/06/01 00:49:59;;;;;;;6.30;1.90;;;;;;;;;;4936827;28;19914;-88
2021/06/01 00:52:28;;;;;;;6.80;1.85;;;;;;;;;;4935400;28;20968;-88
2021/06/01 00:54:55;;;;;;;6.10;2.10;;;;;;;;;;4935908;28;20090;-89
2021/06/01 00:57:23;;;;;;;6.45;2.00;;;;;;;;;;4958525;28;20045;-87
2021/06/01 00:59:52;;;;;;;5.93;1.83;;;;;;;;;;4966030;28;20047;-89
2021/06/01 01:02:20;;;;;;;6.93;1.80;;;;;;;;;;4943673;28;20038;-89
2021/06/01 01:04:48;;;;;;;6.28;2.08;;;;;;;;;;4959566;28;20045;-89
2021/06/01 01:07:34;;;;;;;5.28;1.65;;;;;;;;;;4946089;28;20027;-88
2021/06/01 01:12:59;;;;;;;5.85;1.65;;;;;;;;;;4963077;28;20038;-88
2021/06/01 01:15:27;;;;;;;5.25;1.50;;;;;;;;;;4942203;28;20041;-89
2021/06/01 01:17:56;;;;;;;5.57;1.75;;;;;;;;;;4958040;28;20035;-88
2021/06/01 01:20:31;;;;;;;6.18;1.73;;;;;;;;;;4965977;28;20393;-89
2021/06/01 01:23:00;;;;;;;7.05;2.08;;;;;;;;;;4941623;28;20034;-88
2021/06/01 01:25:34;;;;;;;6.15;2.00;;;;;;;;;;4946655;28;20030;-88
2021/06/01 01:28:20;;;;;;;5.15;1.60;;;;;;;;;;4959726;28;20045;-89
2021/06/01 01:30:53;;;;;;;5.03;1.70;;;;;;;;;;4949636;28;20034;-90
2021/06/01 01:33:48;;;;;;;6.22;1.67;;;;;;;;;;4967881;28;20050;-89
2021/06/01 01:36:19;;;;;;;5.20;1.50;;;;;;;;;;4935276;28;20122;-81
2021/06/01 01:38:49;;;;;;;5.70;1.63;;;;;;;;;;4938842;28;20043;-80
2021/06/01 01:41:17;;;;;;;6.88;1.88;;;;;;;;;;4949991;28;20405;-79
2021/06/01 01:43:48;;;;;;;8.73;1.98;;;;;;;;;;4920592;28;20162;-81
2021/06/01 01:49:01;;;;;;;5.75;1.48;;;;;;;;;;4943409;28;20046;-81
2021/06/01 01:51:43;;;;;;;4.82;1.70;;;;;;;;;;4929223;28;20037;-82
2021/06/01 01:54:15;;;;;;;5.82;1.95;;;;;;;;;;4931534;28;20146;-81
2021/06/01 01:56:51;;;;;;;5.15;1.70;;;;;;;;;;4942466;28;20039;-81
2021/06/01 01:59:22;;;;;;;7.03;1.90;;;;;;;;;;4943933;28;20109;-79
2021/06/01 02:01:50;;;;;;;7.40;2.05;;;;;;;;;;4940935;28;20042;-82
2021/06/01 02:04:19;;;;;;;6.18;2.20;;;;;;;;;;4941890;28;20073;-82
2021/06/01 02:06:48;;;;;;;7.13;2.17;;;;;;;;;;4929735;28;20035;-82
2021/06/01 02:09:19;;;;;;;5.63;1.80;;;;;;;;;;4924871;28;20050;-81
2021/06/01 02:11:46;;;;;;;6.32;2.00;;;;;;;;;;4939153;28;20030;-81
2021/06/01 02:14:14;;;;;;;6.85;2.00;;;;;;;;;;4948280;28;20109;-80
2021/06/01 02:16:47;;;;;;;5.90;1.73;;;;;;;;;;4940572;28;20035;-80
2021/06/01 02:19:15;;;;;;;6.70;1.98;;;;;;;;;;4944951;28;20039;-81
2021/06/01 02:24:33;;;;;;;6.30;1.98;;;;;;;;;;4942945;28;20050;-82
2021/06/01 02:27:20;;;;;;;6.88;2.00;;;;;;;;;;4938193;28;20043;-81
2021/06/01 02:30:01;;;;;;;6.20;2.17;;;;;;;;;;4926662;28;20041;-80
2021/06/01 02:32:31;;;;;;;7.32;1.85;;;;;;;;;;4945510;28;20149;-79
2021/06/01 02:34:59;;;;;;;6.50;2.00;;;;;;;;;;4905434;28;20045;-79
2021/06/01 02:37:25;;;;;;;7.32;2.13;;;;;;;;;;4940562;28;20039;-83
2021/06/01 02:39:57;;;;;;;9.13;2.22;;;;;;;;;;4944679;28;20053;-80
2021/06/01 02:42:26;;;;;;;6.93;2.05;;;;;;;;;;4937283;28;20039;-80
2021/06/01 02:44:53;;;;;;;6.32;1.98;;;;;;;;;;4939433;28;20618;-80
2021/06/01 02:47:23;;;;;;;6.78;2.25;;;;;;;;;;4943056;28;20371;-80
2021/06/01 02:49:51;;;;;;;7.10;1.95;;;;;;;;;;4937743;28;20130;-80
2021/06/01 02:52:19;;;;;;;5.97;1.83;;;;;;;;;;4913139;28;20090;-79
2021/06/01 02:54:47;;;;;;;8.52;2.13;;;;;;;;;;4934941;28;20501;-79
2021/06/01 02:57:15;;;;;;;8.13;1.90;;;;;;;;;;4928377;28;20062;-80
2021/06/01 02:59:42;;;;;;;7.03;1.98;;;;;;;;;;4936647;28;20534;-78
2021/06/01 03:02:11;;;;;;;5.55;1.90;;;;;;;;;;4925070;28;20050;-78
2021/06/01 03:04:59;;;;;;;8.13;2.13;;;;;;;;;;4921636;28;20829;-80
2021/06/01 03:07:28;;;;;;;7.18;2.10;;;;;;;;;;4936302;28;20488;-79
2021/06/01 03:09:54;;;;;;;6.82;2.00;;;;;;;;;;4919770;28;20481;-77
2021/06/01 03:14:57;;;;;;;6.78;2.08;;;;;;;;;;4922359;28;20082;-78
2021/06/01 03:17:27;;;;;;;4.90;1.70;;;;;;;;;;4927656;28;20038;-79
2021/06/01 03:19:54;;;;;;;4.72;1.58;;;;;;;;;;4934945;28;20035;-77
2021/06/01 03:22:26;;;;;;;5.70;1.60;;;;;;;;;;4922545;28;20043;-79
2021/06/01 03:24:56;;;;;;;6.90;2.10;;;;;;;;;;4933671;28;20173;-78
2021/06/01 03:27:26;;;;;;;6.60;2.20;;;;;;;;;;4922806;28;20061;-79
2021/06/01 03:29:54;;;;;;;7.65;2.17;;;;;;;;;;4936781;28;20031;-78
2021/06/01 03:32:22;;;;;;;7.35;1.92;;;;;;;;;;4914783;28;20036;-79
2021/06/01 03:34:50;;;;;;;7.32;2.15;;;;;;;;;;4934080;28;20412;-79
2021/06/01 03:37:18;;;;;;;5.72;2.10;;;;;;;;;;4907037;28;20047;-78
2021/06/01 03:39:47;;;;;;;8.50;2.10;;;;;;;;;;4935621;28;20047;-78
2021/06/01 03:42:18;;;;;;;7.05;2.10;;;;;;;;;;4922153;28;20134;-77
2021/06/01 03:44:46;;;;;;;7.82;1.92;;;;;;;;;;4917527;28;21156;-78
2021/06/01 03:47:15;;;;;;;8.65;2.25;;;;;;;;;;4925440;28;20117;-77
2021/06/01 03:49:44;;;;;;;7.18;1.90;;;;;;;;;;4919700;28;20043;-79
2021/06/01 03:52:11;;;;;;;5.68;1.73;;;;;;;;;;4922692;28;20530;-80
2021/06/01 03:54:42;;;;;;;6.63;1.80;;;;;;;;;;4922374;28;20039;-78
2021/06/01 03:57:15;;;;;;;7.13;2.10;;;;;;;;;;4927531;28;20043;-80
2021/06/01 03:59:43;;;;;;;6.78;1.98;;;;;;;;;;4941733;28;20057;-80
2021/06/01 04:02:12;;;;;;;7.55;2.05;;;;;;;;;;4923386;28;20702;-82
2021/06/01 04:04:42;;;;;;;7.78;2.03;;;;;;;;;;4938752;28;20348;-82
2021/06/01 04:07:13;;;;;;;6.32;2.22;;;;;;;;;;4942439;28;20031;-80
2021/06/01 04:09:44;;;;;;;7.50;2.20;;;;;;;;;;4927242;28;20201;-81
2021/06/01 04:12:11;;;;;;;7.70;2.60;;;;;;;;;;4925754;28;20035;-81
2021/06/01 04:14:41;;;;;;;7.75;2.47;;;;;;;;;;4927782;28;20220;-81
2021/06/01 04:17:08;;;;;;;6.78;2.40;;;;;;;;;;4940269;28;20082;-81
2021/06/01 04:19:36;;;;;;;8.38;2.10;;;;;;;;;;4925060;28;20051;-82
2021/06/01 04:22:06;;;;;;;6.35;2.25;;;;;;;;;;4917184;28;20755;-83
2021/06/01 04:24:35;;;;;;;6.43;2.08;;;;;;;;;;4923734;28;20104;-81
2021/06/01 04:27:06;;;;;;;6.30;2.20;;;;;;;;;;4921914;28;20043;-82
2021/06/01 04:29:34;;;;;;;8.70;2.47;;;;;;;;;;4922787;28;20154;-82
2021/06/01 04:32:00;;;;;;;6.53;2.05;;;;;;;;;;4937604;28;20138;-81
2021/06/01 04:34:27;;;;;;;6.47;2.05;;;;;;;;;;4923462;28;20043;-79
2021/06/01 04:36:55;;;;;;;7.22;2.20;;;;;;;;;;4949354;28;20038;-80
2021/06/01 04:39:22;;;;;;;6.68;2.20;;;;;;;;;;4946470;28;20482;-82
2021/06/01 04:41:50;;;;;;;10.93;2.65;;;;;;;;;;4928956;28;20808;-81
2021/06/01 04:44:17;;;;;;;8.88;2.90;;;;;;;;;;4925046;28;20047;-80
2021/06/01 04:46:46;;;;;;;8.27;2.42;;;;;;;;;;4934708;28;20070;-81
2021/06/01 04:49:14;;;;;;;8.52;2.70;;;;;;;;;;4936794;28;20569;-79
2021/06/01 04:51:42;;;;;;;9.63;2.35;;;;;;;;;;4945628;28;20026;-79
2021/06/01 04:54:10;;;;;;;8.30;2.50;;;;;;;;;;4945972;28;20035;-81
2021/06/01 04:56:36;;;;;;;15.73;3.92;;;;;;;;;;4949777;28;20033;-80
2021/06/01 04:59:04;;;;;;;10.77;2.78;;;;;;;;;;4948764;28;20568;-80
2021/06/01 05:01:32;;;;;;;12.65;3.28;;;;;;;;;;4918584;28;20117;-80
2021/06/01 05:04:02;;;;;;;10.88;3.13;;;;;;;;;;4939502;28;20035;-80
2021/06/01 05:06:29;;;;;;;8.50;2.50;;;;;;;;;;4933482;28;20043;-81
2021/06/01 05:08:56;;;;;;;13.35;2.80;;;;;;;;;;4942660;28;20023;-81
2021/06/01 05:11:24;;;;;;;9.90;2.50;;;;;;;;;;4939921;28;20122;-80
2021/06/01 05:13:50;;;;;;;11.05;3.25;;;;;;;;;;4920888;28;20046;-80
2021/06/01 05:16:19;;;;;;;12.23;3.33;;;;;;;;;;4922667;28;20444;-80
2021/06/01 05:18:47;;;;;;;8.07;2.53;;;;;;;;;;4923815;28;20086;-81
2021/06/01 05:21:19;;;;;;;9.75;2.55;;;;;;;;;;4907169;28;20039;-80
2021/06/01 05:23:46;;;;;;;6.45;2.20;;;;;;;;;;4908299;28;20054;-80
2021/06/01 05:26:14;;;;;;;8.38;2.15;;;;;;;;;;4926745;28;21150;-80
2021/06/01 05:28:41;;;;;;;6.65;2.35;;;;;;;;;;4904747;28;20023;-79
2021/06/01 05:33:57;;;;;;;10.88;2.92;;;;;;;;;;4921184;28;20109;-82
2021/06/01 05:36:50;;;;;;;9.93;2.97;;;;;;;;;;4907276;28;20558;-80
2021/06/01 05:39:19;;;;;;;10.00;2.90;;;;;;;;;;4926886;28;20142;-79
2021/06/01 05:41:47;;;;;;;8.05;2.63;;;;;;;;;;4901740;29;21120;-80
2021/06/01 05:44:16;;;;;;;9.23;2.50;;;;;;;;;;4911216;28;20125;-81
2021/06/01 05:46:45;;;;;;;11.85;3.05;;;;;;;;;;4891361;29;20581;-82
2021/06/01 05:49:13;;;;;;;10.98;3.00;;;;;;;;;;4908348;29;20074;-80
2021/06/01 05:51:41;;;;;;;9.25;2.83;;;;;;;;;;4908691;29;20032;-81
2021/06/01 05:54:09;;;;;;;10.65;3.17;;;;;;;;;;4904564;29;20279;-81
2021/06/01 05:56:39;;;;;;;9.00;3.20;;;;;;;;;;4889104;29;20142;-80
2021/06/01 05:59:06;;;;;;;17.80;3.83;;;;;;;;;;4902048;29;20113;-80
2021/06/01 06:01:35;;;;;;;11.68;3.10;;;;;;;;;;4906142;29;20051;-80
2021/06/01 06:04:04;;;;;;;9.55;3.20;;;;;;;;;;4893322;28;21630;-81
2021/06/01 06:06:32;;;;;;;8.82;2.80;;;;;;;;;;4911258;28;20594;-82
2021/06/01 06:09:02;;;;;;;12.65;3.50;;;;;;;;;;4911239;28;20039;-82
2021/06/01 06:11:31;;;;;;;25.67;5.10;;;;;;;;;;4914915;28;20038;-81
2021/06/01 06:13:58;;;;;;;12.70;3.40;;;;;;;;;;4920530;28;20027;-83
2021/06/01 06:16:27;;;;;;;12.88;3.25;;;;;;;;;;4912669;28;20035;-81
2021/06/01 06:18:59;;;;;;;9.10;3.30;;;;;;;;;;4906742;28;20511;-79
2021/06/01 06:21:27;;;;;;;11.30;3.50;;;;;;;;;;4924671;28;20030;-80
2021/06/01 06:23:56;;;;;;;14.45;3.50;;;;;;;;;;4906987;28;20109;-81
2021/06/01 06:26:23;;;;;;;14.25;3.38;;;;;;;;;;4926960;28;20035;-82
2021/06/01 06:28:50;;;;;;;13.35;3.50;;;;;;;;;;4906059;29;20044;-82
2021/06/01 06:31:19;;;;;;;13.82;3.25;;;;;;;;;;4903036;28;20123;-79
2021/06/01 06:33:46;;;;;;;12.00;3.10;;;;;;;;;;4915280;28;20038;-79
2021/06/01 06:36:14;;;;;;;9.23;2.95;;;;;;;;;;4904344;28;20038;-78
2021/06/01 06:38:45;;;;;;;8.18;2.75;;;;;;;;;;4899920;28;20038;-78
2021/06/01 06:41:16;;;;;;;18.90;3.33;;;;;;;;;;4909752;28;20035;-78
2021/06/01 06:43:49;;;;;;;17.30;3.28;;;;;;;;;;4921833;28;20094;-78
2021/06/01 06:46:29;;;;;;;9.70;2.88;;;;;;;;;;4916532;28;20772;-78
2021/06/01 06:48:57;;;;;;;15.88;3.50;;;;;;;;;;4919585;28;20035;-79
2021/06/01 06:51:26;;;;;;;10.70;3.60;;;;;;;;;;4906345;28;20181;-80
2021/06/01 06:53:56;;;;;;;11.52;5.22;;;;;;;;;;4887596;28;20054;-79
2021/06/01 06:56:26;;;;;;;10.93;4.97;;;;;;;;;;4905264;28;20075;-79
2021/06/01 06:58:56;;;;;;;12.38;5.45;;;;;;;;;;4903601;28;20171;-78
2021/06/01 07:01:23;;;;;;;12.25;5.10;;;;;;;;;;4944629;28;20517;-78
2021/06/01 07:03:53;;;;;;;13.02;4.35;;;;;;;;;;4937235;28;20064;-79
2021/06/01 07:06:21;;;;;;;9.88;2.90;;;;;;;;;;4949232;28;20891;-80
2021/06/01 07:08:49;;;;;;;18.55;3.42;;;;;;;;;;4916196;28;20517;-80
2021/06/01 07:14:34;;;;;;;12.65;3.00;;;;;;;;;;4947977;28;20088;-79
2021/06/01 07:17:03;;;;;;;11.27;2.78;;;;;;;;;;4920180;28;21689;-79
2021/06/01 07:19:31;;;;;;;9.70;2.75;;;;;;;;;;4948487;28;20075;-79
2021/06/01 07:22:00;;;;;;;11.73;2.95;;;;;;;;;;4941270;28;20133;-79
2021/06/01 07:24:28;;;;;;;10.85;3.53;;;;;;;;;;4949694;28;20042;-78
2021/06/01 07:26:56;;;;;;;10.63;3.17;;;;;;;;;;4942863;28;20022;-80
2021/06/01 07:29:33;;;;;;;9.50;3.25;;;;;;;;;;4949285;28;20030;-79
2021/06/01 07:32:00;;;;;;;9.05;2.72;;;;;;;;;;4928453;28;20030;-79
2021/06/01 07:34:30;;;;;;;7.80;2.70;;;;;;;;;;4947959;28;20081;-78
2021/06/01 07:37:01;;;;;;;7.95;2.55;;;;;;;;;;4922032;28;20027;-78
2021/06/01 07:39:34;;;;;;;27.70;3.63;;;;;;;;;;4950101;28;20034;-78
2021/06/01 07:42:01;;;;;;;9.02;3.08;;;;;;;;;;4899029;29;20035;-80
2021/06/01 07:44:30;;;;;;;9.48;2.95;;;;;;;;;;4895045;29;20262;-78
2021/06/01 07:46:59;;;;;;;18.98;2.80;;;;;;;;;;4881644;29;20187;-79
2021/06/01 07:49:54;;;;;;;16.60;3.45;;;;;;;;;;4899350;29;20039;-81
2021/06/01 07:52:26;;;;;;;22.23;3.53;;;;;;;;;;4911063;29;20028;-79
2021/06/01 07:54:56;;;;;;;13.32;3.30;;;;;;;;;;4907321;29;20039;-79
2021/06/01 07:57:23;;;;;;;11.52;3.40;;;;;;;;;;4912536;28;20042;-79
2021/06/01 07:59:51;;;;;;;10.93;2.90;;;;;;;;;;4900953;29;20071;-79
2021/06/01 08:02:20;;;;;;;16.60;3.10;;;;;;;;;;4908524;28;20063;-79
2021/06/01 08:04:48;;;;;;;8.45;2.47;;;;;;;;;;4904502;29;20040;-80
2021/06/01 08:07:17;;;;;;;8.82;2.35;;;;;;;;;;4886830;29;20044;-81
2021/06/01 08:09:44;;;;;;;10.88;2.50;;;;;;;;;;4891446;29;20176;-80
2021/06/01 08:12:12;;;;;;;7.63;2.38;;;;;;;;;;4888338;29;20159;-80
2021/06/01 08:14:40;;;;;;;8.75;2.15;;;;;;;;;;4894820;29;20040;-80
2021/06/01 08:20:37;;;;;;;7.95;2.28;;;;;;;;;;4888493;29;20139;-80
2021/06/01 08:23:10;;;;;;;8.32;2.10;;;;;;;;;;4886048;29;20040;-80
2021/06/01 08:25:37;;;;;;;6.72;2.50;;;;;;;;;;4898465;29;20044;-80
2021/06/01 08:28:05;;;;;;;9.82;2.55;;;;;;;;;;4894003;29;20217;-79
2021/06/01 08:30:33;;;;;;;11.20;3.13;;;;;;;;;;4913839;29;20050;-79
2021/06/01 08:33:00;;;;;;;8.18;2.67;;;;;;;;;;4894286;29;20139;-79
2021/06/01 08:35:27;;;;;;;8.65;2.60;;;;;;;;;;4907839;29;20166;-80
2021/06/01 08:37:56;;;;;;;7.78;2.30;;;;;;;;;;4893077;29;20035;-80
2021/06/01 08:40:24;;;;;;;10.52;2.30;;;;;;;;;;4897318;29;20043;-78
2021/06/01 08:42:52;;;;;;;10.32;2.10;;;;;;;;;;4907652;29;20043;-80
2021/06/01 08:45:20;;;;;;;9.35;2.47;;;;;;;;;;4911119;29;20083;-80
2021/06/01 08:47:49;;;;;;;9.23;2.60;;;;;;;;;;4906207;29;20120;-79
2021/06/01 08:56:30;;;;;;;21.00;4.22;;;;;;;;;;4928077;28;20050;-81
2021/06/01 08:58:57;;;;;;;23.98;3.67;;;;;;;;;;4911982;28;20066;-80
2021/06/01 09:01:25;;;;;;;12.57;2.70;;;;;;;;;;4911599;28;20035;-80
2021/06/01 09:03:58;;;;;;;13.77;2.75;;;;;;;;;;4913937;28;20118;-80
2021/06/01 09:22:36;;;;;;;11.65;3.10;;;;;;;;;;4919577;28;20304;-80
2021/06/01 09:28:16;;;;;;;8.60;2.30;;;;;;;;;;4931286;28;20174;-79
2021/06/01 09:30:57;;;;;;;10.73;2.53;;;;;;;;;;4916633;28;20059;-81
2021/06/01 09:33:29;;;;;;;9.20;2.67;;;;;;;;;;4883836;28;20194;-80
2021/06/01 09:36:04;;;;;;;7.18;2.38;;;;;;;;;;4889399;28;20376;-80
2021/06/01 09:38:39;;;;;;;11.52;2.13;;;;;;;;;;4920413;28;20031;-80
2021/06/01 09:41:16;;;;;;;9.00;2.60;;;;;;;;;;4924742;28;20419;-79
2021/06/01 09:43:55;;;;;;;10.13;2.75;;;;;;;;;;4925283;28;20054;-80
2021/06/01 09:46:26;;;;;;;9.55;2.60;;;;;;;;;;4944296;28;20042;-79
2021/06/01 09:48:55;;;;;;;11.02;2.67;;;;;;;;;;4926098;28;20735;-78
2021/06/01 09:51:35;;;;;;;8.30;2.60;;;;;;;;;;4929048;28;20164;-79
2021/06/01 09:54:22;;;;;;;10.88;2.38;;;;;;;;;;4926015;28;20643;-81
2021/06/01 10:00:05;;;;;;;6.15;2.10;;;;;;;;;;4923281;28;20420;-81
2021/06/01 10:02:36;;;;;;;10.30;2.90;;;;;;;;;;4933244;28;20055;-78
2021/06/01 10:05:18;;;;;;;9.15;2.22;;;;;;;;;;4921385;28;20077;-80
2021/06/01 10:07:51;;;;;;;8.00;2.35;;;;;;;;;;4924019;28;20565;-80
2021/06/01 10:10:24;;;;;;;9.82;2.40;;;;;;;;;;4949357;28;20043;-80
2021/06/01 10:12:54;;;;;;;9.70;2.30;;;;;;;;;;4941924;28;20035;-81
2021/06/01 10:15:25;;;;;;;10.52;2.58;;;;;;;;;;4931646;28;20023;-80
2021/06/01 10:17:57;;;;;;;11.80;2.20;;;;;;;;;;4925841;28;20026;-81
2021/06/01 10:20:25;;;;;;;8.77;2.22;;;;;;;;;;4943077;28;20034;-79
2021/06/01 10:22:52;;;;;;;8.95;2.20;;;;;;;;;;4924902;28;20070;-79
2021/06/01 10:25:40;;;;;;;11.27;2.25;;;;;;;;;;4946647;28;20043;-79
2021/06/01 10:28:15;;;;;;;13.93;2.50;;;;;;;;;;4890818;29;20622;-79
2021/06/01 10:30:46;;;;;;;7.10;2.20;;;;;;;;;;4900223;29;20123;-81
2021/06/01 10:33:18;;;;;;;9.23;2.17;;;;;;;;;;4896072;29;20278;-80
2021/06/01 10:35:59;;;;;;;11.93;2.10;;;;;;;;;;4902559;29;20043;-81
2021/06/01 10:52:27;;;;;;;8.25;2.00;;;;;;;;;;4903790;29;20661;-80
2021/06/01 10:54:58;;;;;;;7.53;2.20;;;;;;;;;;4886099;29;20096;-82
2021/06/01 10:57:26;;;;;;;13.52;2.10;;;;;;;;;;4889468;29;20036;-82
2021/06/01 11:03:10;;;;;;;7.60;1.70;;;;;;;;;;4890036;29;20393;-82
2021/06/01 11:05:58;;;;;;;11.52;1.90;;;;;;;;;;4851000;29;20051;-82
2021/06/01 11:08:45;;;;;;;13.95;2.40;;;;;;;;;;4871273;29;20068;-83
2021/06/01 11:11:28;;;;;;;6.05;1.70;;;;;;;;;;4868036;29;20028;-82
2021/06/01 11:14:05;;;;;;;12.70;2.20;;;;;;;;;;4864126;29;20432;-79
2021/06/01 11:16:52;;;;;;;10.63;2.00;;;;;;;;;;4888384;29;20036;-80
2021/06/01 11:19:23;;;;;;;18.33;2.67;;;;;;;;;;4880282;29;20036;-79
2021/06/01 11:22:01;;;;;;;9.20;2.25;;;;;;;;;;4865035;29;20103;-79
2021/06/01 11:25:14;;;;;;;10.65;1.88;;;;;;;;;;4884146;29;20152;-80
2021/06/01 11:33:43;;;;;;;11.32;1.80;;;;;;;;;;4881543;29;20072;-80
2021/06/01 11:36:29;;;;;;;9.02;1.95;;;;;;;;;;4878378;29;20162;-82
2021/06/01 11:38:59;;;;;;;10.27;2.08;;;;;;;;;;4879768;29;20044;-79
2021/06/01 11:44:26;;;;;;;14.05;2.08;;;;;;;;;;4872935;29;20048;-83
2021/06/01 11:47:26;;;;;;;14.00;2.40;;;;;;;;;;4892289;29;20469;-79
2021/06/01 11:52:38;;;;;;;8.10;1.85;;;;;;;;;;4909417;29;20570;-79
2021/06/01 11:55:09;;;;;;;9.55;2.10;;;;;;;;;;4908676;29;20047;-81
2021/06/01 12:02:00;;;;;;;6.95;1.60;;;;;;;;;;4910557;28;20072;-81
2021/06/01 12:03:15;;;;;;;6.38;1.60;;;;;;;;;;4941836;28;20078;-80
2021/06/01 12:11:13;;;;;;;7.30;1.77;;;;;;;;;;4939714;28;20046;-79
2021/06/01 12:12:25;;;;;;;17.00;2.58;;;;;;;;;;4945212;28;20083;-80
2021/06/01 12:17:53;;;;;;;9.18;2.58;;;;;;;;;;4944752;28;20635;-80
2021/06/01 12:20:23;;;;;;;11.00;2.60;;;;;;;;;;4945375;28;21281;-81
2021/06/01 12:22:51;;;;;;;14.88;2.67;;;;;;;;;;4925650;28;20086;-80
2021/06/01 12:25:21;;;;;;;27.08;3.83;;;;;;;;;;4934712;28;20047;-81
2021/06/01 12:30:59;;;;;;;9.23;2.08;;;;;;;;;;4884708;29;20032;-79
2021/06/01 12:33:28;;;;;;;7.97;2.30;;;;;;;;;;4891224;29;20035;-81
2021/06/01 12:42:09;;;;;;;7.97;2.13;;;;;;;;;;4829419;29;20056;-81
2021/06/01 12:44:43;;;;;;;9.07;2.10;;;;;;;;;;4832722;29;20085;-79
2021/06/01 13:22:48;;;;;;;6.63;2.00;;;;;;;;;;4725805;30;20048;-81
2021/06/01 13:36:53;;;;;;;10.25;2.05;;;;;;;;;;4778432;29;20512;-80
2021/06/01 13:51:05;;;;;;;7.18;1.90;;;;;;;;;;4824030;29;20049;-89
2021/06/01 13:55:59;;;;;;;7.78;2.05;;;;;;;;;;4839767;29;20041;-86
2021/06/01 14:01:30;;;;;;;9.25;2.03;;;;;;;;;;4922229;28;20055;-85
2021/06/01 15:04:57;;;;;;;8.70;2.30;;;;;;;;;;4941596;28;20108;-84
2021/06/01 15:50:00;;;;;;;11.02;2.80;;;;;;;;;;4947087;28;20053;-86
2021/06/01 16:12:37;;;;;;;13.20;3.38;;;;;;;;;;4954993;28;20042;-85
2021/06/01 16:43:45;;;;;;;14.07;4.15;;;;;;;;;;4855481;29;20070;-89
2021/06/01 17:12:17;;;;;;;12.88;3.33;;;;;;;;;;4800192;29;20271;-79
2021/06/01 17:14:45;;;;;;;9.85;3.00;;;;;;;;;;4789260;29;20069;-82
2021/06/01 17:17:16;;;;;;;12.35;3.25;;;;;;;;;;4809095;29;20034;-80
2021/06/01 17:22:39;;;;;;;13.48;3.70;;;;;;;;;;4813700;29;20065;-81
2021/06/01 17:36:45;;;;;;;11.05;3.45;;;;;;;;;;4822863;29;20048;-93
2021/06/01 17:39:48;;;;;;;12.13;3.10;;;;;;;;;;4822330;29;20038;-80
2021/06/01 17:42:21;;;;;;;10.77;3.45;;;;;;;;;;4825236;29;20042;-93
2021/06/01 17:44:51;;;;;;;12.98;3.38;;;;;;;;;;4799055;29;20083;-92
2021/06/01 17:47:21;;;;;;;12.85;3.80;;;;;;;;;;4833580;29;20136;-90
2021/06/01 17:49:51;;;;;;;12.10;3.58;;;;;;;;;;4870674;29;20033;-94
2021/06/01 17:52:41;;;;;;;10.82;3.78;;;;;;;;;;4872252;29;20028;-92
2021/06/01 17:55:08;;;;;;;10.40;3.28;;;;;;;;;;4862360;29;20041;-92
2021/06/01 17:57:37;;;;;;;12.38;3.45;;;;;;;;;;4898638;29;20350;-93
2021/06/01 18:00:08;;;;;;;12.80;4.05;;;;;;;;;;4882200;29;20108;-94
2021/06/01 18:02:39;;;;;;;10.93;3.47;;;;;;;;;;4875820;29;20127;-87
2021/06/01 18:05:10;;;;;;;11.38;4.25;;;;;;;;;;4853880;29;20088;-85
2021/06/01 18:07:47;;;;;;;14.57;3.80;;;;;;;;;;4915530;28;20054;-82
2021/06/01 18:42:22;;;;;;;10.13;3.85;;;;;;;;;;4909752;28;20046;-82
2021/06/01 19:02:30;;;;;;;15.48;4.18;;;;;;;;;;4921984;28;20069;-79
2021/06/01 19:50:41;;;;;;;11.10;4.80;;;;;;;;;;4926395;28;20170;-82
2021/06/01 19:53:35;;;;;;;20.20;7.68;;;;;;;;;;4924978;28;20114;-83
2021/06/01 19:56:06;;;;;;;19.88;6.68;;;;;;;;;;4916400;28;20202;-83
2021/06/01 19:58:35;;;;;;;15.40;4.65;;;;;;;;;;4909922;28;20130;-85
2021/06/01 20:01:04;;;;;;;17.45;5.82;;;;;;;;;;4894402;29;21168;-84
2021/06/01 20:03:31;;;;;;;14.25;4.28;;;;;;;;;;4900145;29;20044;-86
2021/06/01 20:05:59;;;;;;;13.35;4.57;;;;;;;;;;4892341;28;20154;-84
2021/06/01 20:08:28;;;;;;;13.48;4.38;;;;;;;;;;4910269;28;20046;-84
2021/06/01 20:13:50;;;;;;;14.23;4.10;;;;;;;;;;4905668;28;20686;-86
2021/06/01 20:16:25;;;;;;;12.27;3.80;;;;;;;;;;4907819;29;20406;-83
2021/06/01 20:19:14;;;;;;;19.08;4.95;;;;;;;;;;4893820;29;20046;-82
2021/06/01 20:21:46;;;;;;;16.35;5.70;;;;;;;;;;4894120;29;20210;-81
2021/06/01 20:24:20;;;;;;;13.88;4.55;;;;;;;;;;4896578;29;20044;-84
2021/06/01 20:26:46;;;;;;;14.55;4.70;;;;;;;;;;4855486;29;20052;-80
2021/06/01 20:29:20;;;;;;;13.80;5.18;;;;;;;;;;4889668;29;20185;-80
2021/06/01 20:31:57;;;;;;;15.80;4.70;;;;;;;;;;4891564;29;20071;-79
2021/06/01 20:34:25;;;;;;;13.52;5.60;;;;;;;;;;4887418;29;20181;-80
2021/06/01 20:36:55;;;;;;;14.98;5.38;;;;;;;;;;4886448;29;20040;-81
2021/06/01 20:39:24;;;;;;;15.10;5.68;;;;;;;;;;4883813;29;20642;-82
2021/06/01 20:42:32;;;;;;;13.00;4.18;;;;;;;;;;4835327;29;20041;-79
2021/06/01 20:45:04;;;;;;;15.35;4.03;;;;;;;;;;4843629;29;20045;-79
2021/06/01 20:47:34;;;;;;;13.38;4.47;;;;;;;;;;4840298;29;20041;-77
2021/06/01 20:50:01;;;;;;;17.23;4.38;;;;;;;;;;4814390;29;20056;-79
2021/06/01 20:52:31;;;;;;;12.40;4.35;;;;;;;;;;4815186;29;20064;-78
2021/06/01 20:55:02;;;;;;;15.07;4.70;;;;;;;;;;4846697;29;20204;-78
2021/06/01 20:57:31;;;;;;;14.10;4.05;;;;;;;;;;4844274;29;20414;-78
2021/06/01 20:59:58;;;;;;;12.73;3.78;;;;;;;;;;4844527;29;20036;-78
2021/06/01 21:02:30;;;;;;;12.55;3.80;;;;;;;;;;4845278;29;20140;-79
2021/06/01 21:04:59;;;;;;;12.32;3.97;;;;;;;;;;4843720;29;20524;-77
2021/06/01 21:07:28;;;;;;;14.52;4.30;;;;;;;;;;4845731;29;20053;-79
2021/06/01 21:09:55;;;;;;;14.15;4.28;;;;;;;;;;4813376;29;20375;-79
2021/06/01 21:12:23;;;;;;;12.70;4.15;;;;;;;;;;4826783;29;20045;-78
2021/06/01 21:14:51;;;;;;;12.50;3.78;;;;;;;;;;4823072;29;20047;-78
2021/06/01 21:20:17;;;;;;;12.23;3.78;;;;;;;;;;4831285;29;20633;-79
2021/06/01 21:22:47;;;;;;;12.65;3.70;;;;;;;;;;4824393;29;20048;-79
2021/06/01 21:25:17;;;;;;;12.70;4.05;;;;;;;;;;4830402;29;20283;-79
2021/06/01 21:27:48;;;;;;;13.85;4.05;;;;;;;;;;4820084;29;20132;-79
2021/06/01 21:30:22;;;;;;;12.07;3.58;;;;;;;;;;4824640;29;20038;-79
2021/06/01 21:32:59;;;;;;;11.18;3.97;;;;;;;;;;4828103;29;20119;-78
2021/06/01 21:35:26;;;;;;;14.93;3.80;;;;;;;;;;4871472;29;20098;-79
2021/06/01 21:37:57;;;;;;;14.15;3.58;;;;;;;;;;4877995;29;20028;-78
2021/06/01 21:40:26;;;;;;;14.55;3.88;;;;;;;;;;4879380;29;20110;-78
2021/06/01 21:42:56;;;;;;;13.93;4.07;;;;;;;;;;4877664;29;20104;-78
2021/06/01 21:45:27;;;;;;;12.02;3.58;;;;;;;;;;4883811;29;20044;-79
2021/06/01 21:47:57;;;;;;;16.77;4.55;;;;;;;;;;4874702;29;20059;-79
2021/06/01 21:50:30;;;;;;;23.63;6.15;;;;;;;;;;4906114;28;20098;-79
2021/06/01 21:52:59;;;;;;;17.33;4.93;;;;;;;;;;4932228;28;20526;-78
2021/06/01 21:55:27;;;;;;;16.80;4.80;;;;;;;;;;4919376;28;20034;-79
2021/06/01 21:57:58;;;;;;;12.27;4.00;;;;;;;;;;4921644;28;20031;-78
2021/06/01 22:00:32;;;;;;;14.55;4.55;;;;;;;;;;4933246;28;20042;-78
2021/06/01 22:02:59;;;;;;;15.25;4.05;;;;;;;;;;4934316;28;20050;-78
2021/06/01 22:05:31;;;;;;;13.40;4.40;;;;;;;;;;4915401;28;20051;-79
2021/06/01 22:08:00;;;;;;;19.38;5.07;;;;;;;;;;4918044;28;20045;-79
2021/06/01 22:10:30;;;;;;;12.93;4.03;;;;;;;;;;4923436;28;20530;-78
2021/06/01 22:12:59;;;;;;;12.57;3.95;;;;;;;;;;4917241;28;20054;-76
2021/06/01 22:15:42;;;;;;;12.70;3.83;;;;;;;;;;4900689;28;20039;-76
2021/06/01 22:18:17;;;;;;;11.90;3.78;;;;;;;;;;4924990;28;20097;-79
2021/06/01 22:24:00;;;;;;;17.58;5.07;;;;;;;;;;4923072;28;20542;-79
2021/06/01 22:26:52;;;;;;;13.65;4.10;;;;;;;;;;4915059;28;20039;-81
2021/06/01 22:29:50;;;;;;;13.57;4.68;;;;;;;;;;4925909;28;20027;-80
2021/06/01 22:32:19;;;;;;;12.23;4.18;;;;;;;;;;4925923;28;20024;-80
2021/06/01 22:34:51;;;;;;;14.90;4.10;;;;;;;;;;4915064;28;20038;-79
2021/06/01 22:37:21;;;;;;;14.27;4.10;;;;;;;;;;4929729;28;20138;-79
2021/06/01 22:39:47;;;;;;;16.05;4.70;;;;;;;;;;4929731;28;20029;-79